createdAt,value
2023-03-30T00:01:32.594Z,2.70
2023-03-30T00:03:39.198Z,2.50
2023-03-30T00:05:43.090Z,2.60
2023-03-30T00:07:45.964Z,2.67
2023-03-30T00:09:48.866Z,2.43
2023-03-30T00:11:51.677Z,2.50
2023-03-30T00:13:54.594Z,2.57
2023-03-30T00:15:57.552Z,2.70
2023-03-30T00:18:01.720Z,3.10
2023-03-30T00:20:11.863Z,2.73
2023-03-30T00:22:14.904Z,2.30
2023-03-30T00:24:17.665Z,2.30
2023-03-30T00:26:20.536Z,2.00
2023-03-30T00:28:23.622Z,1.83
2023-03-30T00:30:26.871Z,2.30
2023-03-30T00:32:29.818Z,2.10
2023-03-30T00:34:32.602Z,2.00
2023-03-30T00:36:37.225Z,2.17
2023-03-30T00:38:40.416Z,2.77
2023-03-30T00:40:43.234Z,2.10
2023-03-30T00:42:46.281Z,1.90
2023-03-30T00:45:19.295Z,2.03
2023-03-30T00:47:23.248Z,2.07
2023-03-30T00:49:26.182Z,2.10
2023-03-30T00:51:29.589Z,1.90
2023-03-30T00:53:36.645Z,1.80
2023-03-30T00:55:43.589Z,2.03
2023-03-30T00:57:46.787Z,2.00
2023-03-30T00:59:52.163Z,2.17
2023-03-30T01:01:55.288Z,2.00
2023-03-30T01:04:02.125Z,2.07
2023-03-30T01:06:08.249Z,2.17
2023-03-30T01:08:16.663Z,1.80
2023-03-30T01:10:22.112Z,2.07
2023-03-30T01:12:24.969Z,2.10
2023-03-30T01:14:27.980Z,2.10
2023-03-30T01:16:37.328Z,1.80
2023-03-30T01:18:54.721Z,1.80
2023-03-30T01:21:25.592Z,2.10
2023-03-30T01:24:08.591Z,1.90
2023-03-30T01:26:43.809Z,1.80
2023-03-30T01:28:50.648Z,1.80
2023-03-30T01:31:13.239Z,1.83
2023-03-30T01:33:50.242Z,1.97
2023-03-30T01:36:28.837Z,2.10
2023-03-30T01:39:14.076Z,2.00
2023-03-30T01:41:23.814Z,1.63
2023-03-30T01:43:36.101Z,1.80
2023-03-30T01:45:44.799Z,1.93
2023-03-30T01:47:54.016Z,2.10
2023-03-30T01:50:01.767Z,1.90
2023-03-30T01:52:12.005Z,1.80
2023-03-30T01:54:21.737Z,1.60
2023-03-30T01:56:27.401Z,1.83
2023-03-30T01:58:34.527Z,1.97
2023-03-30T02:00:40.940Z,1.70
2023-03-30T02:02:48.821Z,1.97
2023-03-30T02:04:54.660Z,1.83
2023-03-30T02:07:02.719Z,1.90
2023-03-30T02:09:07.790Z,2.00
2023-03-30T02:11:12.706Z,1.80
2023-03-30T02:13:17.070Z,2.17
2023-03-30T02:15:20.700Z,1.80
2023-03-30T02:17:24.760Z,1.63
2023-03-30T02:19:28.190Z,1.70
2023-03-30T02:21:32.884Z,1.77
2023-03-30T02:23:39.453Z,1.83
2023-03-30T02:25:42.649Z,1.70
2023-03-30T02:27:46.820Z,1.77
2023-03-30T02:29:49.946Z,1.87
2023-03-30T02:31:58.014Z,1.77
2023-03-30T02:34:10.795Z,2.00
2023-03-30T02:36:27.393Z,1.77
2023-03-30T02:38:54.628Z,2.07
2023-03-30T02:41:08.756Z,1.80
2023-03-30T02:43:32.503Z,1.90
2023-03-30T02:45:45.589Z,1.90
2023-03-30T02:47:59.127Z,1.87
2023-03-30T02:50:06.056Z,1.80
2023-03-30T02:52:17.757Z,1.90
2023-03-30T02:54:32.653Z,2.00
2023-03-30T02:56:43.993Z,2.10
2023-03-30T02:58:54.121Z,1.77
2023-03-30T03:01:02.295Z,1.83
2023-03-30T03:03:12.134Z,1.60
2023-03-30T03:05:16.707Z,2.00
2023-03-30T03:07:20.378Z,1.60
2023-03-30T03:09:25.017Z,1.80
2023-03-30T03:11:28.132Z,1.90
2023-03-30T03:13:30.945Z,1.80
2023-03-30T03:15:35.538Z,1.80
2023-03-30T03:17:39.096Z,1.60
2023-03-30T03:19:41.905Z,1.70
2023-03-30T03:21:45.004Z,1.97
2023-03-30T03:23:48.592Z,1.70
2023-03-30T03:25:51.485Z,1.80
2023-03-30T03:27:54.259Z,1.73
2023-03-30T03:29:57.731Z,1.83
2023-03-30T03:32:01.983Z,1.73
2023-03-30T03:34:04.989Z,2.13
2023-03-30T03:36:08.996Z,1.53
2023-03-30T03:38:11.808Z,1.80
2023-03-30T03:40:14.781Z,1.40
2023-03-30T03:42:17.634Z,1.87
2023-03-30T03:44:20.562Z,1.83
2023-03-30T03:46:23.367Z,1.80
2023-03-30T03:48:27.865Z,2.10
2023-03-30T03:50:31.314Z,1.70
2023-03-30T03:52:34.129Z,1.80
2023-03-30T03:54:36.916Z,2.00
2023-03-30T03:56:39.900Z,1.77
2023-03-30T03:58:42.680Z,1.90
2023-03-30T04:00:46.379Z,1.90
2023-03-30T04:02:49.341Z,1.90
2023-03-30T04:04:53.715Z,2.23
2023-03-30T04:06:57.017Z,1.97
2023-03-30T04:09:01.101Z,1.60
2023-03-30T04:11:08.028Z,1.60
2023-03-30T04:13:11.491Z,1.90
2023-03-30T04:15:14.574Z,1.80
2023-03-30T04:17:17.440Z,1.83
2023-03-30T04:19:20.442Z,1.90
2023-03-30T04:21:25.329Z,1.97
2023-03-30T04:23:31.254Z,1.60
2023-03-30T04:25:34.083Z,1.80
2023-03-30T04:27:37.805Z,2.00
2023-03-30T04:29:40.781Z,2.00
2023-03-30T04:31:46.911Z,1.83
2023-03-30T04:33:53.356Z,2.07
2023-03-30T04:35:56.724Z,1.80
2023-03-30T04:38:02.190Z,2.13
2023-03-30T04:40:09.442Z,1.90
2023-03-30T04:42:14.189Z,2.10
2023-03-30T04:44:20.395Z,1.80
2023-03-30T04:46:23.240Z,1.70
2023-03-30T04:48:26.025Z,2.20
2023-03-30T04:50:28.846Z,1.93
2023-03-30T04:52:31.744Z,1.90
2023-03-30T04:54:36.033Z,2.17
2023-03-30T04:56:38.928Z,4.40
2023-03-30T04:58:41.911Z,2.20
2023-03-30T05:00:44.736Z,2.00
2023-03-30T05:02:47.792Z,1.83
2023-03-30T05:04:50.744Z,2.20
2023-03-30T05:06:53.716Z,1.80
2023-03-30T05:08:56.616Z,2.13
2023-03-30T05:11:02.537Z,2.30
2023-03-30T05:13:05.429Z,2.40
2023-03-30T05:15:09.355Z,2.30
2023-03-30T05:17:12.211Z,2.50
2023-03-30T05:19:15.072Z,1.87
2023-03-30T05:21:17.961Z,1.90
2023-03-30T05:23:21.473Z,2.30
2023-03-30T05:25:24.308Z,2.70
2023-03-30T05:27:28.430Z,3.37
2023-03-30T05:29:31.411Z,2.17
2023-03-30T05:31:34.364Z,2.60
2023-03-30T05:33:37.467Z,2.20
2023-03-30T05:35:40.889Z,2.63
2023-03-30T05:37:43.871Z,2.87
2023-03-30T05:39:48.064Z,2.10
2023-03-30T05:41:50.887Z,2.50
2023-03-30T05:43:54.968Z,2.47
2023-03-30T05:45:57.878Z,2.20
2023-03-30T05:48:00.975Z,2.33
2023-03-30T05:50:08.207Z,2.00
2023-03-30T05:52:11.565Z,2.20
2023-03-30T05:54:15.248Z,2.30
2023-03-30T05:56:18.143Z,2.27
2023-03-30T05:58:21.087Z,2.00
2023-03-30T06:00:25.873Z,2.17
2023-03-30T06:02:29.846Z,2.43
2023-03-30T06:04:32.718Z,2.27
2023-03-30T06:06:35.783Z,2.40
2023-03-30T06:08:38.621Z,2.80
2023-03-30T06:10:41.687Z,2.90
2023-03-30T06:12:44.572Z,2.97
2023-03-30T06:14:47.441Z,2.60
2023-03-30T06:16:52.040Z,2.50
2023-03-30T06:18:54.887Z,2.47
2023-03-30T06:20:58.042Z,3.03
2023-03-30T06:23:00.895Z,2.73
2023-03-30T06:25:04.068Z,2.37
2023-03-30T06:27:07.381Z,2.40
2023-03-30T06:29:10.392Z,2.10
2023-03-30T06:31:13.442Z,2.57
2023-03-30T06:33:18.281Z,2.27
2023-03-30T06:35:21.262Z,2.43
2023-03-30T06:37:24.036Z,2.43
2023-03-30T06:39:26.979Z,2.17
2023-03-30T06:41:29.732Z,2.30
2023-03-30T06:43:32.726Z,2.20
2023-03-30T06:45:35.789Z,2.30
2023-03-30T06:47:39.132Z,2.30
2023-03-30T06:49:43.326Z,2.93
2023-03-30T06:51:47.171Z,2.50
2023-03-30T06:53:50.336Z,2.43
2023-03-30T06:55:55.071Z,2.63
2023-03-30T06:57:57.845Z,2.23
2023-03-30T07:00:00.617Z,2.50
2023-03-30T07:02:03.629Z,2.40
2023-03-30T07:04:07.367Z,2.43
2023-03-30T07:06:12.516Z,2.40
2023-03-30T07:08:15.736Z,2.40
2023-03-30T07:10:18.799Z,2.80
2023-03-30T07:12:21.604Z,2.40
2023-03-30T07:14:24.396Z,2.47
2023-03-30T07:16:27.260Z,2.73
2023-03-30T07:18:30.068Z,2.30
2023-03-30T07:20:32.976Z,2.50
2023-03-30T07:22:37.185Z,2.60
2023-03-30T07:24:40.945Z,2.33
2023-03-30T07:26:43.908Z,2.50
2023-03-30T07:28:46.735Z,2.33
2023-03-30T07:30:49.597Z,2.67
2023-03-30T07:32:52.512Z,2.60
2023-03-30T07:34:55.671Z,2.37
2023-03-30T07:36:58.662Z,2.43
2023-03-30T07:39:03.101Z,2.20
2023-03-30T07:41:11.209Z,2.47
2023-03-30T07:43:13.951Z,2.33
2023-03-30T07:45:17.114Z,2.47
2023-03-30T07:47:20.441Z,2.50
2023-03-30T07:49:24.889Z,2.23
2023-03-30T07:51:28.359Z,2.50
2023-03-30T07:53:31.289Z,2.43
2023-03-30T07:55:35.971Z,3.30
2023-03-30T07:57:38.793Z,2.77
2023-03-30T07:59:41.628Z,2.63
2023-03-30T08:01:45.071Z,2.23
2023-03-30T08:03:49.233Z,2.20
2023-03-30T08:05:55.939Z,2.67
2023-03-30T08:07:58.889Z,2.80
2023-03-30T08:10:01.713Z,2.40
2023-03-30T08:12:06.055Z,2.77
2023-03-30T08:14:09.419Z,2.80
2023-03-30T08:16:12.896Z,2.27
2023-03-30T08:18:15.988Z,2.70
2023-03-30T08:20:19.295Z,2.47
2023-03-30T08:22:22.351Z,2.63
2023-03-30T08:24:25.101Z,2.50
2023-03-30T08:26:28.795Z,2.60
2023-03-30T08:28:32.930Z,2.67
2023-03-30T08:30:36.077Z,2.90
2023-03-30T08:32:38.973Z,2.70
2023-03-30T08:34:41.773Z,2.93
2023-03-30T08:36:44.705Z,2.57
2023-03-30T08:38:47.552Z,2.80
2023-03-30T08:40:51.454Z,2.77
2023-03-30T08:43:18.430Z,2.90
2023-03-30T08:45:22.605Z,2.83
2023-03-30T08:47:33.788Z,2.73
2023-03-30T08:49:42.491Z,2.80
2023-03-30T08:51:46.968Z,2.60
2023-03-30T08:53:53.132Z,2.63
2023-03-30T08:56:02.579Z,2.50
2023-03-30T08:58:14.025Z,3.10
2023-03-30T09:00:27.902Z,3.43
2023-03-30T09:02:34.283Z,2.60
2023-03-30T09:04:48.451Z,2.53
2023-03-30T09:06:53.763Z,3.07
2023-03-30T09:08:57.278Z,2.97
2023-03-30T09:11:03.204Z,2.90
2023-03-30T09:13:07.418Z,2.70
2023-03-30T09:15:17.441Z,3.40
2023-03-30T09:17:26.612Z,3.00
2023-03-30T09:19:36.424Z,2.80
2023-03-30T09:21:40.401Z,3.07
2023-03-30T09:23:43.396Z,3.40
2023-03-30T09:25:53.439Z,3.00
2023-03-30T09:28:04.133Z,2.80
2023-03-30T09:30:19.254Z,3.17
2023-03-30T09:32:32.252Z,2.50
2023-03-30T09:34:42.031Z,3.03
2023-03-30T09:36:53.538Z,2.50
2023-03-30T09:38:56.262Z,3.10
2023-03-30T09:41:08.671Z,2.67
2023-03-30T09:43:17.801Z,2.63
2023-03-30T09:45:24.269Z,2.63
2023-03-30T09:47:29.897Z,2.77
2023-03-30T09:49:39.652Z,2.60
2023-03-30T09:51:56.196Z,2.60
2023-03-30T09:54:01.674Z,2.87
2023-03-30T09:56:10.173Z,2.97
2023-03-30T09:58:17.779Z,2.57
2023-03-30T10:00:29.270Z,2.67
2023-03-30T10:02:33.974Z,2.60
2023-03-30T10:05:05.256Z,2.83
2023-03-30T10:07:22.796Z,2.23
2023-03-30T10:09:25.597Z,2.50
2023-03-30T10:11:36.826Z,2.47
2023-03-30T10:13:42.845Z,2.50
2023-03-30T10:15:49.839Z,2.57
2023-03-30T10:17:56.484Z,2.80
2023-03-30T10:20:16.020Z,3.17
2023-03-30T10:22:22.257Z,2.57
2023-03-30T10:24:26.548Z,2.40
2023-03-30T10:26:31.909Z,2.80
2023-03-30T10:28:36.357Z,3.13
2023-03-30T10:30:39.364Z,3.27
2023-03-30T10:32:46.595Z,2.70
2023-03-30T10:34:54.989Z,2.47
2023-03-30T10:36:58.684Z,2.53
2023-03-30T10:39:09.087Z,2.40
2023-03-30T10:41:16.454Z,2.47
2023-03-30T10:43:23.811Z,2.33
2023-03-30T10:45:33.465Z,2.53
2023-03-30T10:48:00.293Z,2.20
2023-03-30T10:50:14.800Z,2.20
2023-03-30T10:52:23.675Z,2.10
2023-03-30T10:54:34.274Z,2.10
2023-03-30T10:56:42.821Z,2.53
2023-03-30T10:59:03.204Z,2.30
2023-03-30T11:01:14.276Z,2.13
2023-03-30T11:03:22.982Z,1.77
2023-03-30T11:05:32.783Z,2.30
2023-03-30T11:07:44.327Z,2.03
2023-03-30T11:09:54.446Z,2.17
2023-03-30T11:12:01.609Z,2.17
2023-03-30T11:14:09.245Z,2.17
2023-03-30T11:16:17.325Z,1.90
2023-03-30T11:18:24.886Z,1.80
2023-03-30T11:20:32.519Z,2.23
2023-03-30T11:22:42.046Z,1.77
2023-03-30T11:24:50.141Z,2.30
2023-03-30T11:26:58.934Z,2.40
2023-03-30T11:29:17.164Z,2.30
2023-03-30T11:31:33.813Z,1.80
2023-03-30T11:33:42.387Z,1.93
2023-03-30T11:35:51.541Z,2.10
2023-03-30T11:37:58.665Z,1.80
2023-03-30T11:40:14.384Z,1.90
2023-03-30T11:42:23.380Z,1.50
2023-03-30T11:44:27.554Z,1.97
2023-03-30T11:46:40.108Z,1.57
2023-03-30T11:49:11.308Z,1.57
2023-03-30T11:51:37.114Z,2.00
2023-03-30T11:53:55.394Z,1.77
2023-03-30T11:56:07.859Z,1.70
2023-03-30T11:58:21.696Z,1.17
2023-03-30T12:00:34.583Z,0.80
2023-03-30T12:02:45.452Z,1.40
2023-03-30T12:04:52.990Z,0.87
2023-03-30T12:06:59.988Z,1.20
2023-03-30T12:09:21.817Z,1.27
2023-03-30T12:11:32.713Z,1.27
2023-03-30T12:13:44.781Z,1.23
2023-03-30T12:15:58.274Z,1.53
2023-03-30T12:18:06.579Z,1.77
2023-03-30T12:20:19.729Z,1.53
2023-03-30T12:22:28.247Z,1.60
2023-03-30T12:24:40.133Z,1.10
2023-03-30T12:26:51.721Z,1.53
2023-03-30T12:29:52.596Z,1.30
2023-03-30T12:32:04.116Z,2.80
2023-03-30T12:34:08.337Z,2.50
2023-03-30T12:36:34.099Z,2.57
2023-03-30T12:38:46.212Z,2.83
2023-03-30T12:41:06.086Z,1.20
2023-03-30T12:43:18.309Z,1.50
2023-03-30T12:45:27.952Z,1.80
2023-03-30T12:47:53.944Z,1.60
2023-03-30T12:50:10.949Z,2.80
2023-03-30T12:52:17.996Z,1.67
2023-03-30T12:55:00.308Z,2.27
2023-03-30T12:57:14.145Z,1.80
2023-03-30T12:59:35.649Z,1.90
2023-03-30T13:01:52.029Z,1.70
2023-03-30T13:03:56.703Z,1.60
2023-03-30T13:06:02.571Z,1.60
2023-03-30T13:08:07.402Z,1.80
2023-03-30T13:10:37.468Z,1.90
2023-03-30T13:12:41.491Z,1.73
2023-03-30T13:14:49.503Z,1.70
2023-03-30T13:17:12.356Z,2.03
2023-03-30T13:19:22.836Z,1.70
2023-03-30T13:21:26.714Z,1.50
2023-03-30T13:23:34.058Z,1.43
2023-03-30T13:25:46.526Z,1.60
2023-03-30T13:27:52.555Z,1.67
2023-03-30T13:29:57.848Z,1.63
2023-03-30T13:32:19.491Z,1.47
2023-03-30T13:34:34.828Z,1.50
2023-03-30T13:36:42.638Z,1.50
2023-03-30T13:39:02.521Z,1.20
2023-03-30T13:41:24.996Z,1.00
2023-03-30T13:43:44.044Z,1.40
2023-03-30T13:45:53.748Z,2.00
2023-03-30T13:48:08.177Z,1.20
2023-03-30T13:50:26.148Z,1.13
2023-03-30T13:52:32.895Z,0.83
2023-03-30T13:54:36.661Z,1.20
2023-03-30T13:56:45.172Z,1.00
2023-03-30T13:58:52.543Z,0.80
2023-03-30T14:00:58.036Z,0.83
2023-03-30T14:03:01.666Z,0.97
2023-03-30T14:05:15.922Z,1.10
2023-03-30T14:07:22.063Z,1.07
2023-03-30T14:09:27.650Z,0.90
2023-03-30T14:11:36.172Z,1.13
2023-03-30T14:13:40.413Z,1.10
2023-03-30T14:15:43.454Z,1.00
2023-03-30T14:17:52.851Z,1.20
2023-03-30T14:20:09.333Z,1.10
2023-03-30T14:22:18.595Z,1.70
2023-03-30T14:24:29.100Z,1.20
2023-03-30T14:26:32.139Z,1.20
2023-03-30T14:28:37.939Z,1.00
2023-03-30T14:30:50.080Z,1.07
2023-03-30T14:33:07.816Z,0.97
2023-03-30T14:35:16.119Z,1.00
2023-03-30T14:37:21.194Z,1.30
2023-03-30T14:39:24.992Z,1.07
2023-03-30T14:41:29.357Z,1.03
2023-03-30T14:43:32.979Z,1.30
2023-03-30T14:45:38.132Z,1.47
2023-03-30T14:47:42.382Z,1.30
2023-03-30T14:49:47.476Z,1.30
2023-03-30T14:51:51.910Z,1.20
2023-03-30T14:53:55.903Z,1.37
2023-03-30T14:56:01.908Z,1.60
2023-03-30T14:58:06.291Z,1.30
2023-03-30T15:00:17.889Z,1.30
2023-03-30T15:02:22.539Z,1.30
2023-03-30T15:04:31.053Z,1.47
2023-03-30T15:06:33.998Z,1.20
2023-03-30T15:08:40.344Z,1.40
2023-03-30T15:10:46.926Z,1.77
2023-03-30T15:12:50.865Z,1.17
2023-03-30T15:14:57.651Z,1.33
2023-03-30T15:17:00.803Z,1.20
2023-03-30T15:19:06.605Z,1.33
2023-03-30T15:21:13.434Z,1.30
2023-03-30T15:23:17.443Z,1.53
2023-03-30T15:25:22.669Z,1.23
2023-03-30T15:27:25.742Z,1.80
2023-03-30T15:29:28.756Z,1.70
2023-03-30T15:31:31.737Z,2.10
2023-03-30T15:33:37.004Z,2.07
2023-03-30T15:35:40.039Z,1.40
2023-03-30T15:37:55.051Z,2.83
2023-03-30T15:39:57.877Z,1.67
2023-03-30T15:42:04.238Z,12.47
2023-03-30T15:44:12.273Z,9.40
2023-03-30T15:46:16.813Z,9.07
2023-03-30T15:48:23.390Z,4.93
2023-03-30T15:50:27.623Z,9.70
2023-03-30T15:52:35.565Z,3.40
2023-03-30T15:54:42.194Z,1.60
2023-03-30T15:56:49.755Z,1.40
2023-03-30T15:58:52.745Z,1.60
2023-03-30T16:00:56.592Z,1.20
2023-03-30T16:03:02.011Z,1.03
2023-03-30T16:05:07.655Z,1.40
2023-03-30T16:07:16.771Z,1.10
2023-03-30T16:09:19.559Z,1.10
2023-03-30T16:11:23.918Z,0.93
2023-03-30T16:13:27.124Z,1.00
2023-03-30T16:15:32.182Z,0.90
2023-03-30T16:17:36.108Z,0.80
2023-03-30T16:19:38.907Z,0.83
2023-03-30T16:21:44.679Z,0.70
2023-03-30T16:23:48.147Z,1.00
2023-03-30T16:25:50.951Z,0.60
2023-03-30T16:27:55.740Z,0.93
2023-03-30T16:29:58.569Z,1.20
2023-03-30T16:32:04.486Z,1.10
2023-03-30T16:34:07.267Z,0.80
2023-03-30T16:36:14.844Z,0.87
2023-03-30T16:38:18.682Z,1.00
2023-03-30T16:40:29.178Z,0.97
2023-03-30T16:42:31.980Z,1.20
2023-03-30T16:44:36.767Z,0.90
2023-03-30T16:46:42.038Z,1.30
2023-03-30T16:48:46.242Z,1.20
2023-03-30T16:50:52.911Z,1.23
2023-03-30T16:52:56.130Z,0.80
2023-03-30T16:54:58.924Z,1.30
2023-03-30T16:57:02.411Z,1.00
2023-03-30T16:59:05.407Z,1.20
2023-03-30T17:01:13.165Z,0.97
2023-03-30T17:03:16.661Z,1.00
2023-03-30T17:05:19.591Z,1.23
2023-03-30T17:07:22.437Z,1.07
2023-03-30T17:09:25.525Z,1.20
2023-03-30T17:11:28.269Z,4.80
2023-03-30T17:13:32.060Z,10.23
2023-03-30T17:15:38.429Z,7.27
2023-03-30T17:17:42.906Z,1.67
2023-03-30T17:19:45.858Z,10.10
2023-03-30T17:21:48.650Z,6.97
2023-03-30T17:23:51.512Z,2.60
2023-03-30T17:25:55.471Z,1.67
2023-03-30T17:27:59.193Z,2.23
2023-03-30T17:30:02.033Z,10.50
2023-03-30T17:32:12.345Z,2.83
2023-03-30T17:34:16.388Z,0.90
2023-03-30T17:36:20.432Z,2.20
2023-03-30T17:38:23.209Z,6.30
2023-03-30T17:40:28.227Z,4.80
2023-03-30T17:42:30.956Z,3.33
2023-03-30T17:44:33.915Z,1.10
2023-03-30T17:46:37.112Z,1.60
2023-03-30T17:48:39.985Z,2.47
2023-03-30T17:50:46.263Z,1.40
2023-03-30T17:52:49.450Z,1.20
2023-03-30T17:54:52.217Z,1.30
2023-03-30T17:56:57.601Z,2.30
2023-03-30T17:59:00.492Z,2.90
2023-03-30T18:01:05.753Z,3.73
2023-03-30T18:03:08.702Z,2.40
2023-03-30T18:05:11.878Z,3.40
2023-03-30T18:07:16.547Z,1.80
2023-03-30T18:09:19.560Z,6.73
2023-03-30T18:11:22.442Z,1.93
2023-03-30T18:13:26.340Z,5.73
2023-03-30T18:15:29.518Z,2.90
2023-03-30T18:17:32.311Z,1.80
2023-03-30T18:19:35.074Z,4.30
2023-03-30T18:21:38.106Z,3.53
2023-03-30T18:23:42.217Z,3.13
2023-03-30T18:25:45.515Z,1.70
2023-03-30T18:27:49.295Z,2.10
2023-03-30T18:29:52.496Z,1.30
2023-03-30T18:31:55.278Z,1.50
2023-03-30T18:33:58.112Z,1.10
2023-03-30T18:36:05.162Z,1.00
2023-03-30T18:38:08.222Z,1.00
2023-03-30T18:40:19.348Z,0.90
2023-03-30T18:42:22.150Z,0.90
2023-03-30T18:44:25.098Z,1.17
2023-03-30T18:46:27.975Z,1.10
2023-03-30T18:48:31.565Z,1.33
2023-03-30T18:50:37.026Z,1.27
2023-03-30T18:52:40.125Z,1.20
2023-03-30T18:54:42.929Z,1.40
2023-03-30T18:56:47.840Z,1.20
2023-03-30T18:58:50.811Z,1.10
2023-03-30T19:00:54.870Z,1.40
2023-03-30T19:02:59.064Z,1.20
2023-03-30T19:05:02.059Z,1.10
2023-03-30T19:07:05.648Z,1.43
2023-03-30T19:09:10.000Z,1.40
2023-03-30T19:11:16.818Z,1.13
2023-03-30T19:13:22.289Z,1.67
2023-03-30T19:15:26.881Z,1.47
2023-03-30T19:17:29.670Z,1.40
2023-03-30T19:19:32.529Z,1.60
2023-03-30T19:21:35.300Z,1.40
2023-03-30T19:23:38.214Z,1.50
2023-03-30T19:25:41.625Z,1.70
2023-03-30T19:27:59.271Z,1.60
2023-03-30T19:30:08.234Z,1.70
2023-03-30T19:32:11.759Z,1.50
2023-03-30T19:34:14.600Z,2.03
2023-03-30T19:36:17.359Z,1.47
2023-03-30T19:38:20.463Z,1.63
2023-03-30T19:40:23.779Z,1.40
2023-03-30T19:42:29.476Z,1.47
2023-03-30T19:44:32.286Z,1.40
2023-03-30T19:46:37.928Z,1.70
2023-03-30T19:48:40.896Z,1.20
2023-03-30T19:50:43.751Z,1.63
2023-03-30T19:52:48.665Z,1.23
2023-03-30T19:54:52.355Z,1.30
2023-03-30T19:56:55.207Z,1.47
2023-03-30T19:58:58.784Z,2.00
2023-03-30T20:01:05.544Z,1.60
2023-03-30T20:03:11.873Z,1.67
2023-03-30T20:05:15.534Z,1.33
2023-03-30T20:07:20.003Z,1.40
2023-03-30T20:09:22.916Z,1.43
2023-03-30T20:11:25.975Z,1.20
2023-03-30T20:13:28.733Z,1.10
2023-03-30T20:15:32.428Z,1.37
2023-03-30T20:17:36.309Z,1.30
2023-03-30T20:19:42.584Z,1.20
2023-03-30T20:21:45.637Z,1.37
2023-03-30T20:23:48.752Z,1.07
2023-03-30T20:25:56.588Z,1.03
2023-03-30T20:27:59.379Z,1.37
2023-03-30T20:30:02.380Z,1.07
2023-03-30T20:32:05.641Z,1.00
2023-03-30T20:34:11.102Z,1.13
2023-03-30T20:36:15.475Z,0.90
2023-03-30T20:38:18.371Z,1.10
2023-03-30T20:40:21.403Z,1.00
2023-03-30T20:42:26.579Z,0.80
2023-03-30T20:44:32.226Z,0.67
2023-03-30T20:46:37.851Z,0.80
2023-03-30T20:48:41.519Z,0.80
2023-03-30T20:50:44.217Z,0.90
2023-03-30T20:52:48.564Z,0.70
2023-03-30T20:54:51.608Z,1.00
2023-03-30T20:56:54.709Z,1.00
2023-03-30T20:58:57.881Z,0.80
2023-03-30T21:01:01.495Z,1.30
2023-03-30T21:03:04.576Z,0.80
2023-03-30T21:05:08.460Z,1.60
2023-03-30T21:07:12.156Z,1.43
2023-03-30T21:09:17.693Z,1.10
2023-03-30T21:11:22.628Z,1.30
2023-03-30T21:13:25.550Z,1.20
2023-03-30T21:15:28.375Z,1.17
2023-03-30T21:17:31.393Z,1.00
2023-03-30T21:19:34.456Z,1.00
2023-03-30T21:21:37.802Z,1.13
2023-03-30T21:23:41.450Z,1.00
2023-03-30T21:25:46.468Z,1.10
2023-03-30T21:27:49.303Z,1.30
2023-03-30T21:29:52.129Z,1.40
2023-03-30T21:31:55.068Z,1.10
2023-03-30T21:33:57.964Z,1.10
2023-03-30T21:36:01.253Z,1.07
2023-03-30T21:38:04.280Z,1.00
2023-03-30T21:40:08.631Z,1.07
2023-03-30T21:42:13.146Z,1.43
2023-03-30T21:44:15.977Z,1.00
2023-03-30T21:46:21.147Z,1.27
2023-03-30T21:48:24.401Z,1.20
2023-03-30T21:50:27.167Z,1.80
2023-03-30T21:52:30.095Z,1.20
2023-03-30T21:54:32.890Z,1.27
2023-03-30T21:56:36.162Z,1.20
2023-03-30T21:58:40.377Z,1.47
2023-03-30T22:00:46.205Z,1.30
2023-03-30T22:02:49.061Z,1.40
2023-03-30T22:04:52.017Z,1.40
2023-03-30T22:06:54.824Z,1.20
2023-03-30T22:08:57.645Z,1.33
2023-03-30T22:11:02.732Z,1.27
2023-03-30T22:13:06.199Z,1.50
2023-03-30T22:15:11.449Z,1.30
2023-03-30T22:17:14.251Z,1.33
2023-03-30T22:19:18.631Z,1.43
2023-03-30T22:21:24.464Z,1.37
2023-03-30T22:23:27.447Z,1.50
2023-03-30T22:25:30.377Z,1.50
2023-03-30T22:27:34.137Z,1.43
2023-03-30T22:29:37.003Z,1.20
2023-03-30T22:31:41.529Z,1.23
2023-03-30T22:33:44.521Z,1.40
2023-03-30T22:35:49.095Z,1.50
2023-03-30T22:37:52.306Z,1.53
2023-03-30T22:39:55.281Z,1.30
2023-03-30T22:41:58.087Z,1.00
2023-03-30T22:44:01.037Z,1.30
2023-03-30T22:46:04.078Z,1.30
2023-03-30T22:48:08.529Z,1.70
2023-03-30T22:50:12.198Z,1.33
2023-03-30T22:52:15.036Z,1.40
2023-03-30T22:54:18.961Z,1.37
2023-03-30T22:56:21.838Z,1.40
2023-03-30T22:58:24.909Z,1.40
2023-03-30T23:00:27.978Z,1.30
2023-03-30T23:02:31.282Z,1.33
2023-03-30T23:04:36.176Z,1.40
2023-03-30T23:06:40.283Z,1.50
2023-03-30T23:08:44.016Z,1.40
2023-03-30T23:10:46.868Z,1.50
2023-03-30T23:12:49.938Z,1.50
2023-03-30T23:14:53.045Z,1.30
2023-03-30T23:16:57.728Z,1.20
2023-03-30T23:19:01.282Z,1.47
2023-03-30T23:21:06.778Z,1.20
2023-03-30T23:23:09.965Z,1.30
2023-03-30T23:25:15.945Z,1.37
2023-03-30T23:27:19.037Z,1.20
2023-03-30T23:29:21.910Z,1.50
2023-03-30T23:31:26.716Z,1.30
2023-03-30T23:33:29.778Z,1.40
2023-03-30T23:35:32.573Z,1.47
2023-03-30T23:37:37.290Z,1.40
2023-03-30T23:39:40.094Z,1.37
2023-03-30T23:41:43.659Z,1.40
2023-03-30T23:43:47.818Z,1.13
2023-03-30T23:45:51.007Z,1.40
2023-03-30T23:47:53.803Z,1.13
2023-03-30T23:49:57.008Z,1.33
2023-03-30T23:51:59.800Z,1.10
2023-03-30T23:54:09.506Z,1.37
2023-03-30T23:56:13.773Z,1.20
2023-03-30T23:58:17.900Z,1.40
